Flight Track Log - Related Links

Times and Time Zones

All times are in EDT time to prevent confusion due to time zone crossing. See the EJA951 flight status page for this flight to view local times or setup timezone preferences in your user account.

Time Position Orientation Groundspeed Altitude Reporting Facility
EDT Latitude Longitude Course Direction KTS MPH feet Rate Location/Type
Tue 10:57:29 AM 29.5247 -98.4636 133° Southeast 179 206 1,700  Level Houston Center
Tue 10:57:42 AM 29.5153 -98.4519 133° Southeast 180 207 3,000 4,160 Climbing Houston Center
Tue 10:58:44 AM 29.4825 -98.3972 125° Southeast 225 259 6,900 4,016 Climbing Houston Center
Tue 10:59:46 AM 29.5036 -98.3092 75° East 271 312 11,300 3,435 Climbing Houston Center
Tue 11:00:48 AM 29.5344 -98.2086 71° East 336 387 14,000 2,661 Climbing Houston Center
Tue 11:01:50 AM 29.5686 -98.0978 70° East 364 419 16,800 1,935 Climbing Houston Center
Tue 11:02:52 AM 29.6086 -97.9706 70° East 392 451 18,000 1,220 Climbing Houston Center
Tue 11:03:53 AM 29.6411 -97.8481 73° East 402 463 19,300 1,171 Climbing Houston Center
Tue 11:04:55 AM 29.6453 -97.7231 88° East 407 468 20,400 1,065 Climbing Houston Center
Tue 11:05:57 AM 29.6469 -97.5897 89° East 413 475 21,500 1,113 Climbing Houston Center
Tue 11:06:59 AM 29.6511 -97.4519 88° East 426 490 22,700 726 Climbing Houston Center
Tue 11:08:01 AM 29.6539 -97.3108 89° East 440 506 23,000 146 Climbing Houston Center
Tue 11:09:02 AM 29.6572 -97.1586 89° East 467 537 23,000  Level Houston Center
Tue 11:10:04 AM 29.6678 -96.9706 86° East 484 557 23,000  Level Houston Center
Tue 11:11:06 AM 29.6969 -96.8133 78° East 496 571 23,000  Level Houston Center
Tue 11:12:08 AM 29.7264 -96.6553 78° East 499 574 23,000  Level Houston Center
Tue 11:13:10 AM 29.7536 -96.4986 79° East 499 574 23,000 -194 Level Houston Center
Tue 11:14:12 AM 29.7822 -96.3419 78° East 499 574 22,600 -927 Descending Houston Center
Tue 11:15:13 AM 29.8092 -96.1911 78° East 484 557 21,100 -1,171 Descending Houston Center
Tue 11:16:15 AM 29.8347 -96.0444 79° East 471 542 20,200 -532 Descending Houston Center
Tue 11:17:17 AM 29.8614 -95.8919 79° East 464 534 20,000 -122 Descending Houston Center
Tue 11:17:53 AM 29.8800 -95.7894 78° East 451 519 20,000 -290 Level Houston Center
Tue 11:18:19 AM 29.8872 -95.7511 78° East 452 520 19,700 -857 Descending Houston Center
Tue 11:18:35 AM 29.8964 -95.6911 80° East 447 514 19,400 -1,065 Descending Houston Center
Tue 11:19:21 AM 29.9117 -95.6089 78° East 451 519 18,600 -1,180 Descending Houston Center
Tue 11:19:36 AM 29.9217 -95.5486 79° East 456 525 18,200 -968 Descending Houston Center
Tue 11:20:23 AM 29.9414 -95.4383 78° East 450 518 17,600 -873 Descending Houston Center
Tue 11:20:31 AM 29.9433 -95.4181 84° East 439 505 17,400 -581 Descending Houston Center
Tue 11:21:25 AM 29.9592 -95.2975 81° East 443 510 17,000 -393 Descending Houston Center
Tue 11:21:32 AM 29.9572 -95.2717 95° East 441 507 17,000 -176 Level Houston Center
Tue 11:22:33 AM 29.9589 -95.1317 89° East 440 506 16,800 -1,073 Descending Houston Center
Tue 11:23:35 AM 29.9650 -94.9933 87° East 426 490 14,800 -1,881 Descending Houston Center
Tue 11:24:31 AM 29.9706 -94.8808 87° East 424 488 13,100 -2,066 Descending Houston Center
Tue 11:24:36 AM 29.9706 -94.8553 90° East 408 470 12,700 -1,742 Descending Houston Center
Tue 11:25:33 AM 29.9742 -94.7553 88° East 401 461 11,300 -1,770 Descending Houston Center
Tue 11:25:37 AM 29.9756 -94.7314 86° East 357 411 10,900 -1,258 Descending Houston Center
Tue 11:26:35 AM 29.9789 -94.6508 87° East 346 398 10,000 -984 Descending Houston Center
Tue 11:26:38 AM 29.9786 -94.6322 91° East 288 331 9,900 -1,452 Descending Houston Center
Tue 11:27:37 AM 29.9822 -94.5625 87° East 292 336 8,500 -1,770 Descending Houston Center
Tue 11:27:39 AM 29.9828 -94.5447 88° East 272 313 8,100 -1,548 Descending Houston Center
Tue 11:28:39 AM 29.9867 -94.4650 87° East 269 310 6,900 -1,254 Descending Houston Center
Tue 11:28:46 AM 29.9861 -94.4503 92° East 250 288 6,700 -1,065 Descending Houston Center
Tue 11:29:41 AM 29.9906 -94.3897 85° East 244 281 5,800 -1,026 Descending Houston Center
Tue 11:30:43 AM 29.9919 -94.3183 89° East 229 264 4,700 -1,073 Descending Houston Center
Tue 11:31:44 AM 29.9931 -94.2439 89° East 207 238 3,600 -968 Descending Houston Center
Tue 11:31:45 AM 29.9942 -94.2525 278° West 213 245 3,700 -885 Climbing Houston Center
Tue 11:32:45 AM 29.9950 -94.1808 89° East 195 224 2,700 -871 Descending Houston Center
Tue 11:32:47 AM 29.9967 -94.1889 283° West 204 235 2,800 -885 Climbing Houston Center
Tue 11:33:46 AM 29.9972 -94.1178 89° East 186 214 1,800 -1,082 Descending Houston Center
Tue 11:33:48 AM 29.9986 -94.1161 46° Northeast 193 222 1,700 -984 Descending Houston Center
Tue 11:34:47 AM 29.9753 -94.0678 119° Southeast 162 186 800 -871 Descending Houston Center
Tue 11:34:50 AM 29.9767 -94.0686 333° Northwest 178 205 800 -689 Level Houston Center
Tue 11:35:48 AM 29.9569 -94.0339 123° Southeast 115 132 100 -290 Descending Houston Center
Tue 11:35:52 AM 29.9578 -94.0314 69° East 168 193 500 6,000 Climbing Houston Center
Tue 11:37:00 AM 29.9500 -94.0167 319° Northwest  Level FlightAware Approximate
Tue 11:44:00 AM 29.9508 -94.0207 319° Northwest  Level Estimated

Login

Don't have an account? Register now (free) for customized features, flight alerts, and more!